Terminal Aerodrome Forecast
Issued by NWS

Home | Current Version | Previous Version | Text Only | Print | Product List | Glossary On
Versions: 1 2 3 4 5 6 7 8 9 10 11 12 13 14 15 16
000
FTUS45 KCYS 260015 CCA
TAFLAR
TAF COR
KLAR 260015Z 2600/2624 33013KT P6SM -SHRA FEW018 OVC090
      TEMPO 2600/2601 4SM RA BKN018
     FM260400 VRB05KT P6SM BKN080
     FM261100 VRB05KT 4SM BR SCT010 OVC050
     FM261400 02008KT P6SM OVC060=

USA.gov is the U.S. government's official web portal to all federal, state and local government web resources and services.